Flight Track Log - Related Links

Times and Time Zones

All times are in EDT time to prevent confusion due to time zone crossing. See the N830QS flight status page for this flight to view local times or setup timezone preferences in your user account.

Time Position Orientation Groundspeed Altitude Reporting Facility
EDT Latitude Longitude Course Direction KTS MPH feet Rate Location/Type
Thu 01:07:57 PM 25.8003 -80.2744 85° East 189 217 800  Level Miami Center
Thu 01:09:20 PM 25.8092 -80.1639 85° East 251 289 5,800 3,860 Climbing Miami Center
Thu 01:10:20 PM 25.8256 -80.0814 78° East 269 310 10,000 4,050 Climbing Miami Center
Thu 01:11:20 PM 25.8833 -80.1061 339° North 158 182 13,900 3,350 Climbing Miami Center
Thu 01:12:20 PM 25.9278 -80.1767 305° West 173 199 16,700 2,500 Climbing Miami Center
Thu 01:13:20 PM 25.9847 -80.2475 312° West 239 275 18,900 1,650 Climbing Miami Center
Thu 01:14:20 PM 26.0475 -80.3256 312° West 299 344 20,000 550 Climbing Miami Center
Thu 01:15:20 PM 26.1206 -80.4156 312° West 353 406 20,000  Level Miami Center
Thu 01:16:20 PM 26.1894 -80.5056 310° West 378 435 20,000  Level Miami Center
Thu 01:17:20 PM 26.2606 -80.5889 314° West 378 435 20,000  Level Miami Center
Thu 01:18:20 PM 26.3442 -80.6586 323° Northwest 373 429 20,000  Level Miami Center
Thu 01:19:20 PM 26.4322 -80.7311 324° Northwest 385 443 20,000  Level Miami Center
Thu 01:20:20 PM 26.5078 -80.7961 322° Northwest 385 443 20,000  Level Miami Center
Thu 01:21:20 PM 26.5764 -80.8844 311° West 373 429 20,000  Level Miami Center
Thu 01:22:20 PM 26.6486 -80.9892 308° West 384 442 20,000  Level Miami Center
Thu 01:23:20 PM 26.7028 -81.0656 308° West 384 442 20,000  Level Miami Center
Thu 01:24:20 PM 26.7689 -81.1561 309° West 389 448 20,000  Level Miami Center
Thu 01:25:20 PM 26.8411 -81.2589 308° West 383 441 20,000  Level Miami Center
Thu 01:26:20 PM 26.9069 -81.3544 308° West 383 441 20,000  Level Miami Center
Thu 01:27:20 PM 26.9811 -81.4575 309° West 383 441 20,000 -200 Level Miami Center
Thu 01:28:20 PM 27.0469 -81.5511 308° West 383 441 19,600 -1,000 Descending Miami Center
Thu 01:29:20 PM 27.1047 -81.6350 308° West 378 435 18,000 -2,250 Descending Miami Center
Thu 01:30:20 PM 27.1664 -81.7239 308° West 378 435 15,100 -2,300 Descending Miami Center
Thu 01:31:20 PM 27.2261 -81.8081 309° West 365 420 13,400 -1,250 Descending Miami Center
Thu 01:32:20 PM 27.2858 -81.8925 309° West 353 406 12,600 -650 Descending Miami Center
Thu 01:33:20 PM 27.3436 -81.9769 308° West 348 400 12,100 -550 Descending Miami Center
Thu 01:34:20 PM 27.4011 -82.0589 308° West 343 395 11,500 -550 Descending Miami Center
Thu 01:35:20 PM 27.4525 -82.1336 308° West 336 387 11,000 -250 Descending Miami Center
Thu 01:36:20 PM 27.5106 -82.2067 312° West 307 353 11,000 -450 Level Miami Center
Thu 01:37:20 PM 27.5664 -82.2700 315° West 286 329 10,100 -1,300 Descending Miami Center
Thu 01:38:20 PM 27.6203 -82.3381 312° West 281 323 8,400 -1,682 Descending Miami Center
Thu 01:39:07 PM 27.6667 -82.3833 319° Northwest 276 318 7,100 -1,858 Descending Tampa TRACON
Thu 01:40:13 PM 27.7333 -82.4500 318° Northwest 281 323 4,900 -2,000 Descending Tampa TRACON
Thu 01:41:07 PM 27.7833 -82.4833 329° Northwest 256 295 3,100 -1,278 Descending Tampa TRACON
Thu 01:42:01 PM 27.8333 -82.5167 329° Northwest 216 249 2,600 -316 Descending Tampa TRACON
Thu 01:43:01 PM 27.8833 -82.5333 344° North 160 184 2,500 -694 Descending Tampa TRACON
Thu 01:44:02 PM 27.9167 -82.5333 360° North 143 165 1,200 -1,140 Descending Tampa TRACON
Thu 01:45:02 PM 27.9500 -82.5333 360° North 125 144 200 -1,000 Descending Tampa TRACON
Thu 01:47:00 PM 27.9755 -82.5332 25° Northeast  Level Estimated
Thu 01:54:00 PM 27.9755 -82.5332 190° South  Level Estimated

Login

Don't have an account? Register now (free) for customized features, flight alerts, and more!